sensor_id;sensor_type;location;lat;lon;timestamp;pressure;altitude;pressure_sealevel;temperature;humidity
21879;BME280;27908;42.708;23.278;2023-05-07T00:02:10;63471.34;;;9.02;100.00
21879;BME280;27908;42.708;23.278;2023-05-07T00:04:36;63503.53;;;9.16;100.00
21879;BME280;27908;42.708;23.278;2023-05-07T00:07:03;63526.47;;;9.21;100.00
21879;BME280;27908;42.708;23.278;2023-05-07T00:09:28;63495.41;;;9.18;100.00
21879;BME280;27908;42.708;23.278;2023-05-07T00:11:54;63505.66;;;9.23;100.00
21879;BME280;27908;42.708;23.278;2023-05-07T00:14:19;63488.72;;;9.09;100.00
21879;BME280;27908;42.708;23.278;2023-05-07T00:16:45;63445.00;;;9.09;100.00
21879;BME280;27908;42.708;23.278;2023-05-07T00:19:10;63475.47;;;9.06;100.00
21879;BME280;27908;42.708;23.278;2023-05-07T00:21:36;63467.81;;;9.04;100.00
21879;BME280;27908;42.708;23.278;2023-05-07T00:24:01;63438.34;;;9.05;100.00
21879;BME280;27908;42.708;23.278;2023-05-07T00:26:27;63456.09;;;9.02;100.00
21879;BME280;27908;42.708;23.278;2023-05-07T00:28:52;63474.69;;;8.84;100.00
21879;BME280;27908;42.708;23.278;2023-05-07T00:31:18;63417.13;;;8.70;100.00
21879;BME280;27908;42.708;23.278;2023-05-07T00:33:43;63394.59;;;8.53;100.00
21879;BME280;27908;42.708;23.278;2023-05-07T00:36:08;63387.09;;;8.63;100.00
21879;BME280;27908;42.708;23.278;2023-05-07T00:38:34;63395.66;;;8.54;100.00
21879;BME280;27908;42.708;23.278;2023-05-07T00:40:59;63393.91;;;8.35;100.00
21879;BME280;27908;42.708;23.278;2023-05-07T00:43:25;63373.09;;;8.35;100.00
21879;BME280;27908;42.708;23.278;2023-05-07T00:45:51;63381.66;;;8.28;100.00
21879;BME280;27908;42.708;23.278;2023-05-07T00:48:16;63411.72;;;8.38;100.00
21879;BME280;27908;42.708;23.278;2023-05-07T00:50:42;63354.25;;;8.29;100.00
21879;BME280;27908;42.708;23.278;2023-05-07T00:53:08;63331.31;;;8.21;100.00
21879;BME280;27908;42.708;23.278;2023-05-07T00:55:35;63396.88;;;8.28;100.00
21879;BME280;27908;42.708;23.278;2023-05-07T00:58:01;63329.31;;;8.24;100.00
21879;BME280;27908;42.708;23.278;2023-05-07T01:00:26;63353.72;;;8.28;100.00
21879;BME280;27908;42.708;23.278;2023-05-07T01:02:52;63400.91;;;8.25;100.00
21879;BME280;27908;42.708;23.278;2023-05-07T01:05:19;63338.81;;;8.09;100.00
21879;BME280;27908;42.708;23.278;2023-05-07T01:07:45;63361.22;;;8.16;100.00
21879;BME280;27908;42.708;23.278;2023-05-07T01:10:12;63346.44;;;8.12;100.00
21879;BME280;27908;42.708;23.278;2023-05-07T01:12:38;63347.31;;;8.00;100.00
21879;BME280;27908;42.708;23.278;2023-05-07T01:15:05;63323.53;;;8.07;100.00
21879;BME280;27908;42.708;23.278;2023-05-07T01:17:39;63353.38;;;7.99;100.00
21879;BME280;27908;42.708;23.278;2023-05-07T01:20:06;63304.16;;;7.98;100.00
21879;BME280;27908;42.708;23.278;2023-05-07T01:22:43;63338.16;;;7.99;100.00
21879;BME280;27908;42.708;23.278;2023-05-07T01:25:08;63318.34;;;7.97;100.00
21879;BME280;27908;42.708;23.278;2023-05-07T01:27:34;63301.63;;;8.00;100.00
21879;BME280;27908;42.708;23.278;2023-05-07T01:30:01;63332.09;;;8.00;100.00
21879;BME280;27908;42.708;23.278;2023-05-07T01:32:29;63308.66;;;7.92;100.00
21879;BME280;27908;42.708;23.278;2023-05-07T01:34:57;63318.75;;;7.87;100.00
21879;BME280;27908;42.708;23.278;2023-05-07T01:37:24;63293.88;;;7.85;100.00
21879;BME280;27908;42.708;23.278;2023-05-07T01:39:50;63284.69;;;7.81;100.00
21879;BME280;27908;42.708;23.278;2023-05-07T01:42:15;63293.97;;;7.49;100.00
21879;BME280;27908;42.708;23.278;2023-05-07T01:44:41;63311.56;;;7.80;100.00
21879;BME280;27908;42.708;23.278;2023-05-07T01:47:07;63263.69;;;7.61;100.00
21879;BME280;27908;42.708;23.278;2023-05-07T01:49:32;63269.25;;;7.59;100.00
21879;BME280;27908;42.708;23.278;2023-05-07T01:51:58;63236.66;;;7.47;100.00
21879;BME280;27908;42.708;23.278;2023-05-07T01:54:27;63250.88;;;7.46;100.00
21879;BME280;27908;42.708;23.278;2023-05-07T01:56:54;63313.78;;;7.51;100.00
21879;BME280;27908;42.708;23.278;2023-05-07T01:59:23;63283.72;;;7.39;100.00
21879;BME280;27908;42.708;23.278;2023-05-07T02:01:48;63263.50;;;7.44;100.00
21879;BME280;27908;42.708;23.278;2023-05-07T02:04:14;63311.63;;;7.42;100.00
21879;BME280;27908;42.708;23.278;2023-05-07T02:06:39;63266.94;;;7.35;100.00
21879;BME280;27908;42.708;23.278;2023-05-07T02:09:05;63254.78;;;7.36;100.00
21879;BME280;27908;42.708;23.278;2023-05-07T02:11:30;63242.59;;;7.34;100.00
21879;BME280;27908;42.708;23.278;2023-05-07T02:13:55;63318.78;;;7.46;100.00
21879;BME280;27908;42.708;23.278;2023-05-07T02:16:21;63304.13;;;7.49;100.00
21879;BME280;27908;42.708;23.278;2023-05-07T02:18:48;63266.59;;;7.49;100.00
21879;BME280;27908;42.708;23.278;2023-05-07T02:21:13;63291.34;;;7.42;100.00
21879;BME280;27908;42.708;23.278;2023-05-07T02:23:39;63232.47;;;7.34;100.00
21879;BME280;27908;42.708;23.278;2023-05-07T02:26:04;63229.31;;;7.23;100.00
21879;BME280;27908;42.708;23.278;2023-05-07T02:28:29;63293.72;;;7.29;100.00
21879;BME280;27908;42.708;23.278;2023-05-07T02:30:55;63218.66;;;7.23;100.00
21879;BME280;27908;42.708;23.278;2023-05-07T02:33:20;63187.19;;;7.19;100.00
21879;BME280;27908;42.708;23.278;2023-05-07T02:35:46;63214.66;;;7.26;100.00
21879;BME280;27908;42.708;23.278;2023-05-07T02:38:11;63235.81;;;7.17;100.00
21879;BME280;27908;42.708;23.278;2023-05-07T02:40:37;63223.19;;;7.20;100.00
21879;BME280;27908;42.708;23.278;2023-05-07T02:43:04;63196.34;;;7.21;100.00
21879;BME280;27908;42.708;23.278;2023-05-07T02:45:31;63220.72;;;7.27;100.00
21879;BME280;27908;42.708;23.278;2023-05-07T02:47:57;63293.75;;;7.32;100.00
21879;BME280;27908;42.708;23.278;2023-05-07T02:50:22;63260.78;;;7.27;100.00
21879;BME280;27908;42.708;23.278;2023-05-07T02:52:47;63250.13;;;7.26;100.00
21879;BME280;27908;42.708;23.278;2023-05-07T02:55:13;63306.56;;;7.44;100.00
21879;BME280;27908;42.708;23.278;2023-05-07T02:57:39;63254.28;;;7.38;100.00
21879;BME280;27908;42.708;23.278;2023-05-07T03:00:15;63273.00;;;7.34;100.00
21879;BME280;27908;42.708;23.278;2023-05-07T03:02:41;63230.00;;;7.39;100.00
21879;BME280;27908;42.708;23.278;2023-05-07T03:05:07;63297.88;;;7.36;100.00
21879;BME280;27908;42.708;23.278;2023-05-07T03:07:34;63269.31;;;7.20;100.00
21879;BME280;27908;42.708;23.278;2023-05-07T03:10:00;63271.00;;;7.34;100.00
21879;BME280;27908;42.708;23.278;2023-05-07T03:12:25;63266.28;;;7.20;100.00
21879;BME280;27908;42.708;23.278;2023-05-07T03:14:50;63241.56;;;7.30;100.00
21879;BME280;27908;42.708;23.278;2023-05-07T03:17:16;63274.56;;;7.35;100.00
21879;BME280;27908;42.708;23.278;2023-05-07T03:19:41;63253.34;;;7.44;100.00
21879;BME280;27908;42.708;23.278;2023-05-07T03:22:07;63276.22;;;7.46;100.00
21879;BME280;27908;42.708;23.278;2023-05-07T03:24:32;63295.97;;;7.46;100.00
21879;BME280;27908;42.708;23.278;2023-05-07T03:26:58;63278.75;;;7.49;100.00
21879;BME280;27908;42.708;23.278;2023-05-07T03:29:23;63285.81;;;7.46;100.00
21879;BME280;27908;42.708;23.278;2023-05-07T03:31:48;63274.09;;;7.40;100.00
21879;BME280;27908;42.708;23.278;2023-05-07T03:34:14;63265.00;;;7.43;100.00
21879;BME280;27908;42.708;23.278;2023-05-07T03:36:42;63255.84;;;7.39;100.00
21879;BME280;27908;42.708;23.278;2023-05-07T03:39:07;63302.94;;;7.36;100.00
21879;BME280;27908;42.708;23.278;2023-05-07T03:41:33;63259.84;;;7.36;100.00
21879;BME280;27908;42.708;23.278;2023-05-07T03:43:58;63244.13;;;7.35;100.00
21879;BME280;27908;42.708;23.278;2023-05-07T03:46:23;63242.19;;;7.41;100.00
21879;BME280;27908;42.708;23.278;2023-05-07T03:48:51;63306.16;;;7.48;100.00
21879;BME280;27908;42.708;23.278;2023-05-07T03:51:16;63315.78;;;7.50;100.00
21879;BME280;27908;42.708;23.278;2023-05-07T03:53:42;63244.34;;;7.52;100.00
21879;BME280;27908;42.708;23.278;2023-05-07T03:56:07;63282.94;;;7.60;100.00
21879;BME280;27908;42.708;23.278;2023-05-07T03:58:32;63323.47;;;7.58;100.00
21879;BME280;27908;42.708;23.278;2023-05-07T04:00:58;63289.50;;;7.57;100.00
21879;BME280;27908;42.708;23.278;2023-05-07T04:03:24;63289.03;;;7.61;100.00
21879;BME280;27908;42.708;23.278;2023-05-07T04:05:49;63296.69;;;7.66;100.00
21879;BME280;27908;42.708;23.278;2023-05-07T04:08:15;63305.88;;;7.70;100.00
21879;BME280;27908;42.708;23.278;2023-05-07T04:10:40;63316.59;;;7.76;100.00
21879;BME280;27908;42.708;23.278;2023-05-07T04:13:06;63332.91;;;7.81;100.00
21879;BME280;27908;42.708;23.278;2023-05-07T04:15:31;63317.75;;;7.89;100.00
21879;BME280;27908;42.708;23.278;2023-05-07T04:17:56;63328.94;;;7.90;100.00
21879;BME280;27908;42.708;23.278;2023-05-07T04:20:23;63330.88;;;7.84;100.00
21879;BME280;27908;42.708;23.278;2023-05-07T04:22:48;63335.84;;;8.16;100.00
21879;BME280;27908;42.708;23.278;2023-05-07T04:25:15;63368.81;;;8.16;100.00
21879;BME280;27908;42.708;23.278;2023-05-07T04:27:41;63397.88;;;8.27;100.00
21879;BME280;27908;42.708;23.278;2023-05-07T04:30:07;63405.09;;;8.36;100.00
21879;BME280;27908;42.708;23.278;2023-05-07T04:32:32;63402.50;;;8.31;100.00
21879;BME280;27908;42.708;23.278;2023-05-07T04:34:58;63438.69;;;8.44;100.00
21879;BME280;27908;42.708;23.278;2023-05-07T04:37:23;63405.22;;;8.49;100.00
21879;BME280;27908;42.708;23.278;2023-05-07T04:39:48;63411.31;;;8.50;100.00
21879;BME280;27908;42.708;23.278;2023-05-07T04:42:15;63441.06;;;8.73;100.00
21879;BME280;27908;42.708;23.278;2023-05-07T04:44:41;63433.06;;;8.85;100.00
21879;BME280;27908;42.708;23.278;2023-05-07T04:47:06;63424.19;;;8.64;100.00
21879;BME280;27908;42.708;23.278;2023-05-07T04:49:32;63494.75;;;9.03;100.00
21879;BME280;27908;42.708;23.278;2023-05-07T04:51:57;63494.34;;;9.12;100.00
21879;BME280;27908;42.708;23.278;2023-05-07T04:54:22;63474.59;;;9.20;100.00
21879;BME280;27908;42.708;23.278;2023-05-07T04:56:48;63517.47;;;9.34;100.00
21879;BME280;27908;42.708;23.278;2023-05-07T04:59:13;63503.31;;;9.43;100.00
21879;BME280;27908;42.708;23.278;2023-05-07T05:01:39;63561.50;;;9.59;100.00
21879;BME280;27908;42.708;23.278;2023-05-07T05:04:05;63536.94;;;9.48;100.00
21879;BME280;27908;42.708;23.278;2023-05-07T05:06:30;63541.88;;;9.82;100.00
21879;BME280;27908;42.708;23.278;2023-05-07T05:08:56;63587.91;;;10.02;100.00
21879;BME280;27908;42.708;23.278;2023-05-07T05:11:21;63615.53;;;10.14;100.00
21879;BME280;27908;42.708;23.278;2023-05-07T05:13:47;63658.88;;;10.19;100.00
21879;BME280;27908;42.708;23.278;2023-05-07T05:16:15;63631.53;;;10.34;100.00
21879;BME280;27908;42.708;23.278;2023-05-07T05:18:41;63655.97;;;10.33;100.00
21879;BME280;27908;42.708;23.278;2023-05-07T05:21:06;63742.41;;;10.62;100.00
21879;BME280;27908;42.708;23.278;2023-05-07T05:23:32;63703.84;;;10.79;100.00
21879;BME280;27908;42.708;23.278;2023-05-07T05:25:57;63742.06;;;10.76;100.00
21879;BME280;27908;42.708;23.278;2023-05-07T05:28:23;63862.59;;;10.94;100.00
21879;BME280;27908;42.708;23.278;2023-05-07T05:30:49;63757.75;;;11.13;100.00
21879;BME280;27908;42.708;23.278;2023-05-07T05:33:15;63789.03;;;11.29;100.00
21879;BME280;27908;42.708;23.278;2023-05-07T05:35:40;63790.16;;;11.39;100.00
21879;BME280;27908;42.708;23.278;2023-05-07T05:38:06;63839.31;;;11.52;100.00
21879;BME280;27908;42.708;23.278;2023-05-07T05:40:31;63801.69;;;11.68;100.00
21879;BME280;27908;42.708;23.278;2023-05-07T05:42:57;63916.66;;;11.75;100.00
21879;BME280;27908;42.708;23.278;2023-05-07T05:45:22;63872.53;;;12.01;100.00
21879;BME280;27908;42.708;23.278;2023-05-07T05:47:48;63888.00;;;12.18;100.00
21879;BME280;27908;42.708;23.278;2023-05-07T05:50:13;63920.84;;;12.33;100.00
21879;BME280;27908;42.708;23.278;2023-05-07T05:52:39;63976.69;;;12.42;100.00
21879;BME280;27908;42.708;23.278;2023-05-07T05:55:06;63958.44;;;12.59;100.00
21879;BME280;27908;42.708;23.278;2023-05-07T05:57:31;63985.69;;;12.73;100.00
21879;BME280;27908;42.708;23.278;2023-05-07T05:59:57;64008.84;;;12.82;100.00
21879;BME280;27908;42.708;23.278;2023-05-07T06:02:23;64011.91;;;12.83;100.00
21879;BME280;27908;42.708;23.278;2023-05-07T06:04:48;64064.38;;;13.09;100.00
21879;BME280;27908;42.708;23.278;2023-05-07T06:07:14;64054.28;;;13.23;100.00
21879;BME280;27908;42.708;23.278;2023-05-07T06:09:39;64072.84;;;13.36;100.00
21879;BME280;27908;42.708;23.278;2023-05-07T06:12:05;64110.25;;;13.40;100.00
21879;BME280;27908;42.708;23.278;2023-05-07T06:14:31;64127.88;;;13.57;100.00
21879;BME280;27908;42.708;23.278;2023-05-07T06:16:56;64122.28;;;13.61;100.00
21879;BME280;27908;42.708;23.278;2023-05-07T06:19:22;64110.63;;;13.75;100.00
21879;BME280;27908;42.708;23.278;2023-05-07T06:21:49;64159.38;;;13.82;100.00
21879;BME280;27908;42.708;23.278;2023-05-07T06:24:14;64152.78;;;13.88;100.00
21879;BME280;27908;42.708;23.278;2023-05-07T06:26:40;64174.84;;;13.89;100.00
21879;BME280;27908;42.708;23.278;2023-05-07T06:29:06;64164.16;;;13.99;100.00
21879;BME280;27908;42.708;23.278;2023-05-07T06:31:31;64241.69;;;14.09;100.00
21879;BME280;27908;42.708;23.278;2023-05-07T06:33:57;64230.06;;;14.25;100.00
21879;BME280;27908;42.708;23.278;2023-05-07T06:36:22;64250.16;;;14.32;100.00
21879;BME280;27908;42.708;23.278;2023-05-07T06:38:48;64281.09;;;14.47;99.54
21879;BME280;27908;42.708;23.278;2023-05-07T06:41:13;64292.41;;;14.50;96.73
21879;BME280;27908;42.708;23.278;2023-05-07T06:43:39;64264.06;;;14.38;97.04
21879;BME280;27908;42.708;23.278;2023-05-07T06:46:04;64231.31;;;14.46;98.44
21879;BME280;27908;42.708;23.278;2023-05-07T06:48:30;64271.00;;;14.64;100.00
21879;BME280;27908;42.708;23.278;2023-05-07T06:50:56;64311.19;;;14.80;97.22
21879;BME280;27908;42.708;23.278;2023-05-07T06:53:23;64349.41;;;15.02;96.61
21879;BME280;27908;42.708;23.278;2023-05-07T06:55:48;64359.66;;;14.99;93.29
21879;BME280;27908;42.708;23.278;2023-05-07T06:58:14;64292.31;;;14.92;93.83
21879;BME280;27908;42.708;23.278;2023-05-07T07:00:39;64372.53;;;15.02;93.11
21879;BME280;27908;42.708;23.278;2023-05-07T07:03:06;64387.00;;;15.11;92.94
21879;BME280;27908;42.708;23.278;2023-05-07T07:05:31;64384.13;;;15.30;94.79
21879;BME280;27908;42.708;23.278;2023-05-07T07:07:57;64451.63;;;15.48;93.40
21879;BME280;27908;42.708;23.278;2023-05-07T07:10:23;64439.50;;;15.66;94.73
21879;BME280;27908;42.708;23.278;2023-05-07T07:12:49;64489.47;;;15.76;89.35
21879;BME280;27908;42.708;23.278;2023-05-07T07:15:15;64494.63;;;15.76;86.57
21879;BME280;27908;42.708;23.278;2023-05-07T07:17:40;64461.13;;;15.69;89.23
21879;BME280;27908;42.708;23.278;2023-05-07T07:20:06;64516.50;;;16.02;90.67
21879;BME280;27908;42.708;23.278;2023-05-07T07:22:32;64570.22;;;16.21;88.38
21879;BME280;27908;42.708;23.278;2023-05-07T07:24:57;64590.91;;;16.31;88.30
21879;BME280;27908;42.708;23.278;2023-05-07T07:27:23;64589.50;;;16.42;86.69
21879;BME280;27908;42.708;23.278;2023-05-07T07:29:49;64587.50;;;16.50;86.01
21879;BME280;27908;42.708;23.278;2023-05-07T07:32:14;64644.34;;;16.67;85.93
21879;BME280;27908;42.708;23.278;2023-05-07T07:34:40;64667.59;;;16.74;84.24
21879;BME280;27908;42.708;23.278;2023-05-07T07:37:05;64660.03;;;16.89;80.10
21879;BME280;27908;42.708;23.278;2023-05-07T07:39:34;64669.75;;;16.84;79.54
21879;BME280;27908;42.708;23.278;2023-05-07T07:42:00;64702.25;;;16.88;79.40
21879;BME280;27908;42.708;23.278;2023-05-07T07:44:27;64638.31;;;16.81;79.84
21879;BME280;27908;42.708;23.278;2023-05-07T07:46:52;64673.97;;;16.93;77.50
21879;BME280;27908;42.708;23.278;2023-05-07T07:49:18;64691.34;;;16.80;78.95
21879;BME280;27908;42.708;23.278;2023-05-07T07:51:43;64640.66;;;16.61;78.27
21879;BME280;27908;42.708;23.278;2023-05-07T07:54:09;64716.13;;;16.86;79.69
21879;BME280;27908;42.708;23.278;2023-05-07T07:56:34;64679.66;;;16.93;75.29
21879;BME280;27908;42.708;23.278;2023-05-07T07:59:00;64691.97;;;16.90;75.75
21879;BME280;27908;42.708;23.278;2023-05-07T08:01:25;64726.69;;;17.06;75.91
21879;BME280;27908;42.708;23.278;2023-05-07T08:03:51;64736.69;;;17.23;75.74
21879;BME280;27908;42.708;23.278;2023-05-07T08:06:17;64832.28;;;17.43;75.59
21879;BME280;27908;42.708;23.278;2023-05-07T08:08:42;64809.66;;;17.48;72.68
21879;BME280;27908;42.708;23.278;2023-05-07T08:11:08;64805.72;;;17.64;76.71
21879;BME280;27908;42.708;23.278;2023-05-07T08:13:33;64787.25;;;17.73;74.51
21879;BME280;27908;42.708;23.278;2023-05-07T08:16:17;64809.16;;;17.50;72.64
21879;BME280;27908;42.708;23.278;2023-05-07T08:18:43;64801.16;;;17.72;73.80
21879;BME280;27908;42.708;23.278;2023-05-07T08:21:08;64888.13;;;17.95;74.71
21879;BME280;27908;42.708;23.278;2023-05-07T08:23:34;64874.78;;;18.05;71.31
21879;BME280;27908;42.708;23.278;2023-05-07T08:26:00;64871.19;;;18.04;70.87
21879;BME280;27908;42.708;23.278;2023-05-07T08:28:25;64918.78;;;18.12;70.78
21879;BME280;27908;42.708;23.278;2023-05-07T08:30:51;64894.56;;;18.16;69.28
21879;BME280;27908;42.708;23.278;2023-05-07T08:33:16;64927.34;;;18.37;68.57
21879;BME280;27908;42.708;23.278;2023-05-07T08:35:42;64975.06;;;18.55;67.46
21879;BME280;27908;42.708;23.278;2023-05-07T08:38:07;65012.84;;;18.62;67.97
21879;BME280;27908;42.708;23.278;2023-05-07T08:40:38;65021.13;;;18.62;65.25
21879;BME280;27908;42.708;23.278;2023-05-07T08:43:05;65020.16;;;18.69;67.39
21879;BME280;27908;42.708;23.278;2023-05-07T08:45:35;65079.44;;;18.95;66.68
21879;BME280;27908;42.708;23.278;2023-05-07T08:48:09;65111.69;;;19.11;62.53
21879;BME280;27908;42.708;23.278;2023-05-07T08:50:37;65118.66;;;18.93;61.75
21879;BME280;27908;42.708;23.278;2023-05-07T08:53:04;65184.34;;;19.31;63.53
21879;BME280;27908;42.708;23.278;2023-05-07T08:55:30;65169.66;;;19.56;63.59
21879;BME280;27908;42.708;23.278;2023-05-07T08:57:56;65269.38;;;19.82;63.05
21879;BME280;27908;42.708;23.278;2023-05-07T09:00:22;65344.31;;;20.08;63.46
21879;BME280;27908;42.708;23.278;2023-05-07T09:02:47;65303.44;;;20.11;61.57
21879;BME280;27908;42.708;23.278;2023-05-07T09:05:13;65298.25;;;20.11;61.36
21879;BME280;27908;42.708;23.278;2023-05-07T09:07:39;65340.38;;;20.24;58.17
21879;BME280;27908;42.708;23.278;2023-05-07T09:10:05;65357.50;;;20.26;57.25
21879;BME280;27908;42.708;23.278;2023-05-07T09:12:31;65310.03;;;20.03;59.39
21879;BME280;27908;42.708;23.278;2023-05-07T09:14:59;65262.63;;;20.19;58.78
21879;BME280;27908;42.708;23.278;2023-05-07T09:17:24;65351.91;;;20.33;59.42
21879;BME280;27908;42.708;23.278;2023-05-07T09:19:50;65394.19;;;20.55;57.96
21879;BME280;27908;42.708;23.278;2023-05-07T09:22:15;65514.91;;;20.86;59.98
21879;BME280;27908;42.708;23.278;2023-05-07T09:24:47;65494.59;;;21.15;62.17
21879;BME280;27908;42.708;23.278;2023-05-07T09:27:12;65541.22;;;21.47;56.08
21879;BME280;27908;42.708;23.278;2023-05-07T09:29:38;65600.06;;;21.61;54.23
21879;BME280;27908;42.708;23.278;2023-05-07T09:32:08;65642.97;;;21.84;55.33
21879;BME280;27908;42.708;23.278;2023-05-07T09:34:34;65634.31;;;21.59;51.97
21879;BME280;27908;42.708;23.278;2023-05-07T09:37:04;65539.34;;;21.26;49.63
21879;BME280;27908;42.708;23.278;2023-05-07T09:39:40;65631.69;;;21.56;51.16
21879;BME280;27908;42.708;23.278;2023-05-07T09:42:06;65668.44;;;21.83;47.74
21879;BME280;27908;42.708;23.278;2023-05-07T09:44:32;65649.78;;;21.88;47.21
21879;BME280;27908;42.708;23.278;2023-05-07T09:46:59;65668.25;;;21.71;46.34
21879;BME280;27908;42.708;23.278;2023-05-07T09:49:28;65673.59;;;21.81;48.88
21879;BME280;27908;42.708;23.278;2023-05-07T09:51:55;65718.63;;;22.06;49.70
21879;BME280;27908;42.708;23.278;2023-05-07T09:54:22;65842.91;;;22.40;48.56
21879;BME280;27908;42.708;23.278;2023-05-07T09:56:49;65801.44;;;22.47;47.36
21879;BME280;27908;42.708;23.278;2023-05-07T09:59:15;65849.97;;;22.61;46.14
21879;BME280;27908;42.708;23.278;2023-05-07T10:01:43;65844.84;;;22.63;45.39
21879;BME280;27908;42.708;23.278;2023-05-07T10:04:09;65869.72;;;22.57;46.51
21879;BME280;27908;42.708;23.278;2023-05-07T10:06:37;65701.03;;;22.09;47.74
21879;BME280;27908;42.708;23.278;2023-05-07T10:09:03;65765.06;;;22.15;45.81
21879;BME280;27908;42.708;23.278;2023-05-07T10:11:33;65787.78;;;22.39;46.74
21879;BME280;27908;42.708;23.278;2023-05-07T10:14:00;65857.97;;;22.73;44.24
21879;BME280;27908;42.708;23.278;2023-05-07T10:16:34;65841.75;;;22.65;43.54
21879;BME280;27908;42.708;23.278;2023-05-07T10:19:06;65969.38;;;23.07;46.24
21879;BME280;27908;42.708;23.278;2023-05-07T10:21:36;66012.94;;;23.28;45.97
21879;BME280;27908;42.708;23.278;2023-05-07T10:24:19;66079.75;;;23.37;42.91
21879;BME280;27908;42.708;23.278;2023-05-07T10:26:48;66069.41;;;23.42;42.27
21879;BME280;27908;42.708;23.278;2023-05-07T10:32:42;66021.88;;;23.34;42.54
21879;BME280;27908;42.708;23.278;2023-05-07T10:35:21;66131.31;;;23.65;43.48
21879;BME280;27908;42.708;23.278;2023-05-07T10:37:48;66151.47;;;23.87;42.16
21879;BME280;27908;42.708;23.278;2023-05-07T10:40:14;66221.69;;;24.06;45.40
21879;BME280;27908;42.708;23.278;2023-05-07T10:42:59;66066.75;;;23.68;41.96
21879;BME280;27908;42.708;23.278;2023-05-07T10:45:26;66031.03;;;23.52;43.59
21879;BME280;27908;42.708;23.278;2023-05-07T10:48:14;66016.81;;;23.41;42.08
21879;BME280;27908;42.708;23.278;2023-05-07T10:50:41;66020.31;;;23.32;43.46
21879;BME280;27908;42.708;23.278;2023-05-07T10:55:42;66143.63;;;23.84;42.27
21879;BME280;27908;42.708;23.278;2023-05-07T10:58:24;66201.34;;;24.06;43.98
21879;BME280;27908;42.708;23.278;2023-05-07T11:00:56;66197.75;;;24.08;41.58
21879;BME280;27908;42.708;23.278;2023-05-07T11:03:22;66216.84;;;24.26;42.72
21879;BME280;27908;42.708;23.278;2023-05-07T11:06:08;66200.91;;;24.11;39.94
21879;BME280;27908;42.708;23.278;2023-05-07T11:08:53;66163.69;;;23.98;38.92
21879;BME280;27908;42.708;23.278;2023-05-07T11:11:19;66169.38;;;23.96;40.54
21879;BME280;27908;42.708;23.278;2023-05-07T11:13:48;66066.06;;;23.58;39.13
21879;BME280;27908;42.708;23.278;2023-05-07T11:16:21;66119.50;;;23.76;40.33
21879;BME280;27908;42.708;23.278;2023-05-07T11:18:55;66116.63;;;23.91;39.71
21879;BME280;27908;42.708;23.278;2023-05-07T11:21:35;66210.81;;;24.10;40.18
21879;BME280;27908;42.708;23.278;2023-05-07T11:24:02;66121.00;;;24.02;39.11
21879;BME280;27908;42.708;23.278;2023-05-07T11:29:21;66100.63;;;23.68;38.79
21879;BME280;27908;42.708;23.278;2023-05-07T11:31:54;66163.13;;;23.95;38.45
21879;BME280;27908;42.708;23.278;2023-05-07T11:34:24;66137.97;;;23.89;39.44
21879;BME280;27908;42.708;23.278;2023-05-07T11:36:50;66009.03;;;23.44;39.25
21879;BME280;27908;42.708;23.278;2023-05-07T11:39:30;66131.44;;;24.02;38.79
21879;BME280;27908;42.708;23.278;2023-05-07T11:42:01;66267.94;;;24.25;39.67
21879;BME280;27908;42.708;23.278;2023-05-07T11:44:43;66330.34;;;24.70;37.79
21879;BME280;27908;42.708;23.278;2023-05-07T11:47:10;66393.09;;;24.78;39.06
21879;BME280;27908;42.708;23.278;2023-05-07T11:49:36;66356.91;;;24.68;37.43
21879;BME280;27908;42.708;23.278;2023-05-07T11:52:01;66240.63;;;24.43;36.40
21879;BME280;27908;42.708;23.278;2023-05-07T11:54:35;66263.25;;;24.25;36.11
21879;BME280;27908;42.708;23.278;2023-05-07T11:57:00;66171.72;;;24.10;34.70
21879;BME280;27908;42.708;23.278;2023-05-07T11:59:26;66163.00;;;23.90;37.15
21879;BME280;27908;42.708;23.278;2023-05-07T12:01:52;66184.44;;;23.93;38.31
21879;BME280;27908;42.708;23.278;2023-05-07T12:04:19;66178.47;;;24.09;37.63
21879;BME280;27908;42.708;23.278;2023-05-07T12:06:46;66250.63;;;24.21;36.22
21879;BME280;27908;42.708;23.278;2023-05-07T12:09:11;66253.16;;;24.45;38.01
21879;BME280;27908;42.708;23.278;2023-05-07T12:11:37;66402.44;;;24.74;37.46
21879;BME280;27908;42.708;23.278;2023-05-07T12:14:05;66395.06;;;24.97;35.62
21879;BME280;27908;42.708;23.278;2023-05-07T12:16:30;66352.75;;;24.69;36.66
21879;BME280;27908;42.708;23.278;2023-05-07T12:18:56;66459.31;;;25.25;37.40
21879;BME280;27908;42.708;23.278;2023-05-07T12:21:24;66523.00;;;25.50;36.39
21879;BME280;27908;42.708;23.278;2023-05-07T12:23:50;66438.78;;;25.18;36.33
21879;BME280;27908;42.708;23.278;2023-05-07T12:26:15;66558.91;;;25.42;35.89
21879;BME280;27908;42.708;23.278;2023-05-07T12:28:41;66579.50;;;25.78;35.27
21879;BME280;27908;42.708;23.278;2023-05-07T12:31:07;66642.88;;;25.83;34.99
21879;BME280;27908;42.708;23.278;2023-05-07T12:33:33;66629.94;;;25.91;35.41
21879;BME280;27908;42.708;23.278;2023-05-07T12:36:03;66719.91;;;26.16;34.78
21879;BME280;27908;42.708;23.278;2023-05-07T12:38:34;66777.63;;;26.47;34.65
21879;BME280;27908;42.708;23.278;2023-05-07T12:41:00;66773.16;;;26.34;34.85
21879;BME280;27908;42.708;23.278;2023-05-07T12:43:27;66711.19;;;26.22;34.21
21879;BME280;27908;42.708;23.278;2023-05-07T12:45:55;66793.16;;;26.40;35.46
21879;BME280;27908;42.708;23.278;2023-05-07T12:48:21;66823.84;;;26.54;34.21
21879;BME280;27908;42.708;23.278;2023-05-07T12:50:51;66926.78;;;26.91;33.95
21879;BME280;27908;42.708;23.278;2023-05-07T12:53:20;66998.09;;;27.16;34.48
21879;BME280;27908;42.708;23.278;2023-05-07T12:55:48;67038.03;;;27.43;32.13